sensor_id;sensor_type;location;lat;lon;timestamp;temperature;humidity
46730;DHT22;32476;50.002;11.854;2022-07-23T00:00:12;18.40;99.90
46730;DHT22;32476;50.002;11.854;2022-07-23T00:02:42;18.30;99.90
46730;DHT22;32476;50.002;11.854;2022-07-23T00:05:09;18.40;99.90
46730;DHT22;32476;50.002;11.854;2022-07-23T00:07:35;18.40;99.90
46730;DHT22;32476;50.002;11.854;2022-07-23T00:10:04;18.40;99.90
46730;DHT22;32476;50.002;11.854;2022-07-23T00:12:31;18.40;99.90
46730;DHT22;32476;50.002;11.854;2022-07-23T00:14:57;18.40;99.90
46730;DHT22;32476;50.002;11.854;2022-07-23T00:17:24;18.40;99.90
46730;DHT22;32476;50.002;11.854;2022-07-23T00:19:50;18.50;99.90
46730;DHT22;32476;50.002;11.854;2022-07-23T00:22:16;18.50;99.90
46730;DHT22;32476;50.002;11.854;2022-07-23T00:24:43;18.50;99.90
46730;DHT22;32476;50.002;11.854;2022-07-23T00:27:09;18.50;99.90
46730;DHT22;32476;50.002;11.854;2022-07-23T00:29:35;18.60;99.90
46730;DHT22;32476;50.002;11.854;2022-07-23T00:32:03;18.60;99.90
46730;DHT22;32476;50.002;11.854;2022-07-23T00:34:30;18.50;99.90
46730;DHT22;32476;50.002;11.854;2022-07-23T00:36:56;18.60;99.90
46730;DHT22;32476;50.002;11.854;2022-07-23T00:39:23;18.70;99.90
46730;DHT22;32476;50.002;11.854;2022-07-23T00:41:51;18.70;99.90
46730;DHT22;32476;50.002;11.854;2022-07-23T00:46:50;18.70;99.90
46730;DHT22;32476;50.002;11.854;2022-07-23T00:49:20;18.70;99.90
46730;DHT22;32476;50.002;11.854;2022-07-23T00:51:49;18.60;99.90
46730;DHT22;32476;50.002;11.854;2022-07-23T00:54:17;18.70;99.90
46730;DHT22;32476;50.002;11.854;2022-07-23T00:56:44;18.70;99.90
46730;DHT22;32476;50.002;11.854;2022-07-23T00:59:12;18.70;99.90
46730;DHT22;32476;50.002;11.854;2022-07-23T01:01:39;18.60;99.90
46730;DHT22;32476;50.002;11.854;2022-07-23T01:04:06;18.60;99.90
46730;DHT22;32476;50.002;11.854;2022-07-23T01:06:35;18.60;99.90
46730;DHT22;32476;50.002;11.854;2022-07-23T01:09:04;18.60;99.90
46730;DHT22;32476;50.002;11.854;2022-07-23T01:11:36;18.60;99.90
46730;DHT22;32476;50.002;11.854;2022-07-23T01:14:15;18.70;99.90
46730;DHT22;32476;50.002;11.854;2022-07-23T01:16:43;18.90;99.90
46730;DHT22;32476;50.002;11.854;2022-07-23T01:19:12;18.70;99.90
46730;DHT22;32476;50.002;11.854;2022-07-23T01:21:40;18.50;99.90
46730;DHT22;32476;50.002;11.854;2022-07-23T01:24:09;18.50;99.90
46730;DHT22;32476;50.002;11.854;2022-07-23T01:26:38;18.50;99.90
46730;DHT22;32476;50.002;11.854;2022-07-23T01:29:05;18.60;99.90
46730;DHT22;32476;50.002;11.854;2022-07-23T01:31:32;18.60;99.90
46730;DHT22;32476;50.002;11.854;2022-07-23T01:33:59;18.50;99.90
46730;DHT22;32476;50.002;11.854;2022-07-23T01:36:25;18.50;99.90
46730;DHT22;32476;50.002;11.854;2022-07-23T01:38:52;18.50;99.90
46730;DHT22;32476;50.002;11.854;2022-07-23T01:41:19;18.40;99.90
46730;DHT22;32476;50.002;11.854;2022-07-23T01:43:46;18.40;99.90
46730;DHT22;32476;50.002;11.854;2022-07-23T01:46:12;18.50;99.90
46730;DHT22;32476;50.002;11.854;2022-07-23T01:48:39;18.50;99.90
46730;DHT22;32476;50.002;11.854;2022-07-23T01:51:05;18.40;99.90
46730;DHT22;32476;50.002;11.854;2022-07-23T01:53:31;18.30;99.90
46730;DHT22;32476;50.002;11.854;2022-07-23T01:56:00;18.20;99.90
46730;DHT22;32476;50.002;11.854;2022-07-23T01:58:27;18.20;99.90
46730;DHT22;32476;50.002;11.854;2022-07-23T02:00:54;18.20;99.90
46730;DHT22;32476;50.002;11.854;2022-07-23T02:03:22;18.30;99.90
46730;DHT22;32476;50.002;11.854;2022-07-23T02:05:48;18.30;99.90
46730;DHT22;32476;50.002;11.854;2022-07-23T02:08:14;18.40;99.90
46730;DHT22;32476;50.002;11.854;2022-07-23T02:10:42;18.30;99.90
46730;DHT22;32476;50.002;11.854;2022-07-23T02:13:08;18.30;99.90
46730;DHT22;32476;50.002;11.854;2022-07-23T02:15:34;18.40;99.90
46730;DHT22;32476;50.002;11.854;2022-07-23T02:18:02;18.50;99.90
46730;DHT22;32476;50.002;11.854;2022-07-23T02:20:28;18.50;99.90
46730;DHT22;32476;50.002;11.854;2022-07-23T02:22:54;18.60;99.90
46730;DHT22;32476;50.002;11.854;2022-07-23T02:25:21;18.50;99.90
46730;DHT22;32476;50.002;11.854;2022-07-23T02:27:47;18.50;99.90
46730;DHT22;32476;50.002;11.854;2022-07-23T02:30:13;18.60;99.90
46730;DHT22;32476;50.002;11.854;2022-07-23T02:32:41;18.50;99.90
46730;DHT22;32476;50.002;11.854;2022-07-23T02:35:07;18.60;99.90
46730;DHT22;32476;50.002;11.854;2022-07-23T02:37:33;18.60;99.90
46730;DHT22;32476;50.002;11.854;2022-07-23T02:40:01;18.60;99.90
46730;DHT22;32476;50.002;11.854;2022-07-23T02:42:27;18.60;99.90
46730;DHT22;32476;50.002;11.854;2022-07-23T02:44:53;18.60;99.90
46730;DHT22;32476;50.002;11.854;2022-07-23T02:47:20;18.60;99.90
46730;DHT22;32476;50.002;11.854;2022-07-23T02:49:46;18.50;99.90
46730;DHT22;32476;50.002;11.854;2022-07-23T02:52:12;18.40;99.90
46730;DHT22;32476;50.002;11.854;2022-07-23T02:54:39;18.50;99.90
46730;DHT22;32476;50.002;11.854;2022-07-23T02:57:05;18.40;99.90
46730;DHT22;32476;50.002;11.854;2022-07-23T02:59:31;18.30;99.90
46730;DHT22;32476;50.002;11.854;2022-07-23T03:01:59;18.40;99.90
46730;DHT22;32476;50.002;11.854;2022-07-23T03:04:24;18.40;99.90
46730;DHT22;32476;50.002;11.854;2022-07-23T03:06:50;18.30;99.90
46730;DHT22;32476;50.002;11.854;2022-07-23T03:09:18;18.20;99.90
46730;DHT22;32476;50.002;11.854;2022-07-23T03:11:44;18.20;99.90
46730;DHT22;32476;50.002;11.854;2022-07-23T03:14:10;18.30;99.90
46730;DHT22;32476;50.002;11.854;2022-07-23T03:16:40;18.30;99.90
46730;DHT22;32476;50.002;11.854;2022-07-23T03:19:06;18.30;99.90
46730;DHT22;32476;50.002;11.854;2022-07-23T03:21:32;18.30;99.90
46730;DHT22;32476;50.002;11.854;2022-07-23T03:24:00;18.30;99.90
46730;DHT22;32476;50.002;11.854;2022-07-23T03:26:26;18.40;99.90
46730;DHT22;32476;50.002;11.854;2022-07-23T03:28:52;18.30;99.90
46730;DHT22;32476;50.002;11.854;2022-07-23T03:31:19;18.30;99.90
46730;DHT22;32476;50.002;11.854;2022-07-23T03:33:45;18.20;99.90
46730;DHT22;32476;50.002;11.854;2022-07-23T03:36:11;18.10;99.90
46730;DHT22;32476;50.002;11.854;2022-07-23T03:38:39;18.10;99.90
46730;DHT22;32476;50.002;11.854;2022-07-23T03:41:05;18.10;99.90
46730;DHT22;32476;50.002;11.854;2022-07-23T03:43:31;18.20;99.90
46730;DHT22;32476;50.002;11.854;2022-07-23T03:45:58;18.20;99.90
46730;DHT22;32476;50.002;11.854;2022-07-23T03:48:24;18.30;99.90
46730;DHT22;32476;50.002;11.854;2022-07-23T03:50:50;18.30;99.90
46730;DHT22;32476;50.002;11.854;2022-07-23T03:53:17;18.30;99.90
46730;DHT22;32476;50.002;11.854;2022-07-23T03:55:43;18.20;99.90
46730;DHT22;32476;50.002;11.854;2022-07-23T03:58:09;18.20;99.90
46730;DHT22;32476;50.002;11.854;2022-07-23T04:00:36;18.10;99.90
46730;DHT22;32476;50.002;11.854;2022-07-23T04:03:03;18.10;99.90
46730;DHT22;32476;50.002;11.854;2022-07-23T04:05:28;18.10;99.90
46730;DHT22;32476;50.002;11.854;2022-07-23T04:07:57;18.10;99.90
46730;DHT22;32476;50.002;11.854;2022-07-23T04:10:23;18.20;99.90
46730;DHT22;32476;50.002;11.854;2022-07-23T04:12:49;18.10;99.90
46730;DHT22;32476;50.002;11.854;2022-07-23T04:15:16;18.10;99.90
46730;DHT22;32476;50.002;11.854;2022-07-23T04:17:42;18.10;99.90
46730;DHT22;32476;50.002;11.854;2022-07-23T04:20:10;18.10;99.90
46730;DHT22;32476;50.002;11.854;2022-07-23T04:22:38;18.00;99.90
46730;DHT22;32476;50.002;11.854;2022-07-23T04:25:05;18.00;99.90
46730;DHT22;32476;50.002;11.854;2022-07-23T04:27:31;18.00;99.90
46730;DHT22;32476;50.002;11.854;2022-07-23T04:30:00;17.90;99.90
46730;DHT22;32476;50.002;11.854;2022-07-23T04:32:26;18.00;99.90
46730;DHT22;32476;50.002;11.854;2022-07-23T04:34:52;18.00;99.90
46730;DHT22;32476;50.002;11.854;2022-07-23T04:37:19;18.00;99.90
46730;DHT22;32476;50.002;11.854;2022-07-23T04:39:45;18.00;99.90
46730;DHT22;32476;50.002;11.854;2022-07-23T04:42:11;18.10;99.90
46730;DHT22;32476;50.002;11.854;2022-07-23T04:44:38;18.10;99.90
46730;DHT22;32476;50.002;11.854;2022-07-23T04:47:04;18.10;99.90
46730;DHT22;32476;50.002;11.854;2022-07-23T04:49:30;18.30;99.90
46730;DHT22;32476;50.002;11.854;2022-07-23T04:51:58;18.20;99.90
46730;DHT22;32476;50.002;11.854;2022-07-23T04:54:23;18.10;99.90
46730;DHT22;32476;50.002;11.854;2022-07-23T04:56:49;18.00;99.90
46730;DHT22;32476;50.002;11.854;2022-07-23T04:59:17;18.10;99.90
46730;DHT22;32476;50.002;11.854;2022-07-23T05:01:43;18.20;99.90
46730;DHT22;32476;50.002;11.854;2022-07-23T05:04:09;18.10;99.90
46730;DHT22;32476;50.002;11.854;2022-07-23T05:06:36;18.30;99.90
46730;DHT22;32476;50.002;11.854;2022-07-23T05:09:02;18.50;99.90
46730;DHT22;32476;50.002;11.854;2022-07-23T05:11:28;18.80;99.90
46730;DHT22;32476;50.002;11.854;2022-07-23T05:13:56;18.90;99.90
46730;DHT22;32476;50.002;11.854;2022-07-23T05:16:22;18.80;99.90
46730;DHT22;32476;50.002;11.854;2022-07-23T05:18:48;19.00;99.90
46730;DHT22;32476;50.002;11.854;2022-07-23T05:21:15;19.10;99.90
46730;DHT22;32476;50.002;11.854;2022-07-23T05:23:41;19.20;99.90
46730;DHT22;32476;50.002;11.854;2022-07-23T05:26:07;19.30;99.90
46730;DHT22;32476;50.002;11.854;2022-07-23T05:28:34;19.40;99.90
46730;DHT22;32476;50.002;11.854;2022-07-23T05:31:00;19.50;99.90
46730;DHT22;32476;50.002;11.854;2022-07-23T05:33:26;19.70;99.90
46730;DHT22;32476;50.002;11.854;2022-07-23T05:35:54;19.80;99.90
46730;DHT22;32476;50.002;11.854;2022-07-23T05:38:26;20.00;99.90
46730;DHT22;32476;50.002;11.854;2022-07-23T05:40:52;20.00;99.90
46730;DHT22;32476;50.002;11.854;2022-07-23T05:43:19;20.20;99.90
46730;DHT22;32476;50.002;11.854;2022-07-23T05:45:45;20.20;99.90
46730;DHT22;32476;50.002;11.854;2022-07-23T05:48:11;20.20;99.90
46730;DHT22;32476;50.002;11.854;2022-07-23T05:50:39;20.30;99.90
46730;DHT22;32476;50.002;11.854;2022-07-23T05:53:04;20.30;99.90
46730;DHT22;32476;50.002;11.854;2022-07-23T05:55:30;20.40;99.90
46730;DHT22;32476;50.002;11.854;2022-07-23T05:57:59;20.40;99.90
46730;DHT22;32476;50.002;11.854;2022-07-23T06:00:26;20.40;99.90
46730;DHT22;32476;50.002;11.854;2022-07-23T06:02:53;20.30;99.90
46730;DHT22;32476;50.002;11.854;2022-07-23T06:05:20;20.40;99.90
46730;DHT22;32476;50.002;11.854;2022-07-23T06:07:46;20.40;99.90
46730;DHT22;32476;50.002;11.854;2022-07-23T06:10:12;20.40;99.90
46730;DHT22;32476;50.002;11.854;2022-07-23T06:12:40;20.50;99.90
46730;DHT22;32476;50.002;11.854;2022-07-23T06:15:07;20.60;99.90
46730;DHT22;32476;50.002;11.854;2022-07-23T06:17:34;20.60;99.90
46730;DHT22;32476;50.002;11.854;2022-07-23T06:20:02;20.60;99.90
46730;DHT22;32476;50.002;11.854;2022-07-23T06:22:28;20.70;99.90
46730;DHT22;32476;50.002;11.854;2022-07-23T06:24:54;20.80;99.90
46730;DHT22;32476;50.002;11.854;2022-07-23T06:27:21;20.90;99.90
46730;DHT22;32476;50.002;11.854;2022-07-23T06:29:47;21.00;99.90
46730;DHT22;32476;50.002;11.854;2022-07-23T06:32:13;21.00;99.90
46730;DHT22;32476;50.002;11.854;2022-07-23T06:34:40;21.00;99.90
46730;DHT22;32476;50.002;11.854;2022-07-23T06:37:06;21.20;99.90
46730;DHT22;32476;50.002;11.854;2022-07-23T06:39:33;21.30;99.90
46730;DHT22;32476;50.002;11.854;2022-07-23T06:42:00;21.50;99.90
46730;DHT22;32476;50.002;11.854;2022-07-23T06:44:28;21.60;99.90
46730;DHT22;32476;50.002;11.854;2022-07-23T06:46:54;21.70;99.90
46730;DHT22;32476;50.002;11.854;2022-07-23T06:49:21;21.90;99.90
46730;DHT22;32476;50.002;11.854;2022-07-23T06:51:48;22.00;99.90
46730;DHT22;32476;50.002;11.854;2022-07-23T06:54:14;21.90;99.90
46730;DHT22;32476;50.002;11.854;2022-07-23T06:56:41;21.90;99.90
46730;DHT22;32476;50.002;11.854;2022-07-23T06:59:08;21.70;99.90
46730;DHT22;32476;50.002;11.854;2022-07-23T07:01:34;21.70;99.90
46730;DHT22;32476;50.002;11.854;2022-07-23T07:04:02;21.70;99.90
46730;DHT22;32476;50.002;11.854;2022-07-23T07:06:28;21.90;99.90
46730;DHT22;32476;50.002;11.854;2022-07-23T07:08:54;22.00;99.90
46730;DHT22;32476;50.002;11.854;2022-07-23T07:11:22;22.10;99.90
46730;DHT22;32476;50.002;11.854;2022-07-23T07:13:51;22.30;99.90
46730;DHT22;32476;50.002;11.854;2022-07-23T07:16:17;22.30;99.90
46730;DHT22;32476;50.002;11.854;2022-07-23T07:18:44;22.50;99.90
46730;DHT22;32476;50.002;11.854;2022-07-23T07:21:10;22.40;99.90
46730;DHT22;32476;50.002;11.854;2022-07-23T07:23:36;22.50;99.90
46730;DHT22;32476;50.002;11.854;2022-07-23T07:26:03;22.50;99.90
46730;DHT22;32476;50.002;11.854;2022-07-23T07:28:29;23.00;99.90
46730;DHT22;32476;50.002;11.854;2022-07-23T07:30:55;23.20;99.90
46730;DHT22;32476;50.002;11.854;2022-07-23T07:33:23;23.20;99.90
46730;DHT22;32476;50.002;11.854;2022-07-23T07:35:49;23.10;99.90
46730;DHT22;32476;50.002;11.854;2022-07-23T07:38:15;23.10;99.90
46730;DHT22;32476;50.002;11.854;2022-07-23T07:40:43;22.90;99.90
46730;DHT22;32476;50.002;11.854;2022-07-23T07:43:08;22.60;99.90
46730;DHT22;32476;50.002;11.854;2022-07-23T07:45:34;22.30;99.90
46730;DHT22;32476;50.002;11.854;2022-07-23T07:48:02;22.20;99.90
46730;DHT22;32476;50.002;11.854;2022-07-23T07:50:28;22.10;99.90
46730;DHT22;32476;50.002;11.854;2022-07-23T07:52:54;22.50;99.90
46730;DHT22;32476;50.002;11.854;2022-07-23T07:55:21;22.60;99.90
46730;DHT22;32476;50.002;11.854;2022-07-23T07:57:48;22.80;99.90
46730;DHT22;32476;50.002;11.854;2022-07-23T08:00:15;23.20;99.90
46730;DHT22;32476;50.002;11.854;2022-07-23T08:05:13;23.40;99.90
46730;DHT22;32476;50.002;11.854;2022-07-23T08:07:41;23.90;99.90
46730;DHT22;32476;50.002;11.854;2022-07-23T08:10:10;24.20;99.90
46730;DHT22;32476;50.002;11.854;2022-07-23T08:12:44;24.40;99.90
46730;DHT22;32476;50.002;11.854;2022-07-23T08:15:14;24.70;99.90
46730;DHT22;32476;50.002;11.854;2022-07-23T08:17:42;24.40;99.90
46730;DHT22;32476;50.002;11.854;2022-07-23T08:20:10;24.20;99.90
46730;DHT22;32476;50.002;11.854;2022-07-23T08:25:37;23.70;99.90
46730;DHT22;32476;50.002;11.854;2022-07-23T08:28:08;24.20;99.90
46730;DHT22;32476;50.002;11.854;2022-07-23T08:30:36;24.60;99.90
46730;DHT22;32476;50.002;11.854;2022-07-23T08:33:09;25.10;99.90
46730;DHT22;32476;50.002;11.854;2022-07-23T08:35:40;24.70;99.90
46730;DHT22;32476;50.002;11.854;2022-07-23T08:38:11;24.50;99.90
46730;DHT22;32476;50.002;11.854;2022-07-23T08:40:41;24.20;99.90
46730;DHT22;32476;50.002;11.854;2022-07-23T08:43:29;24.00;99.90
46730;DHT22;32476;50.002;11.854;2022-07-23T08:45:58;23.70;99.90
46730;DHT22;32476;50.002;11.854;2022-07-23T08:48:36;23.70;99.90
46730;DHT22;32476;50.002;11.854;2022-07-23T08:51:04;23.90;99.90
46730;DHT22;32476;50.002;11.854;2022-07-23T08:53:33;23.90;99.90
46730;DHT22;32476;50.002;11.854;2022-07-23T08:56:02;23.90;99.90
46730;DHT22;32476;50.002;11.854;2022-07-23T08:58:30;23.60;99.90
46730;DHT22;32476;50.002;11.854;2022-07-23T09:00:58;23.40;99.90
46730;DHT22;32476;50.002;11.854;2022-07-23T09:03:30;23.40;99.90
46730;DHT22;32476;50.002;11.854;2022-07-23T09:06:00;23.40;99.90
46730;DHT22;32476;50.002;11.854;2022-07-23T09:08:37;23.00;99.90
46730;DHT22;32476;50.002;11.854;2022-07-23T09:11:08;23.00;99.90
46730;DHT22;32476;50.002;11.854;2022-07-23T09:13:40;23.20;99.90
46730;DHT22;32476;50.002;11.854;2022-07-23T09:16:31;23.20;99.90
46730;DHT22;32476;50.002;11.854;2022-07-23T09:18:59;23.40;99.90
46730;DHT22;32476;50.002;11.854;2022-07-23T09:24:11;23.00;99.90
46730;DHT22;32476;50.002;11.854;2022-07-23T09:26:46;23.00;99.90
46730;DHT22;32476;50.002;11.854;2022-07-23T09:29:20;23.00;99.90
46730;DHT22;32476;50.002;11.854;2022-07-23T09:32:03;22.90;99.90
46730;DHT22;32476;50.002;11.854;2022-07-23T09:34:35;22.60;99.90
46730;DHT22;32476;50.002;11.854;2022-07-23T09:39:41;22.00;99.90
46730;DHT22;32476;50.002;11.854;2022-07-23T09:44:49;22.20;99.90
46730;DHT22;32476;50.002;11.854;2022-07-23T09:47:18;22.40;99.90
46730;DHT22;32476;50.002;11.854;2022-07-23T09:50:05;22.60;99.90
46730;DHT22;32476;50.002;11.854;2022-07-23T09:52:49;22.60;99.90
46730;DHT22;32476;50.002;11.854;2022-07-23T09:55:17;22.90;99.90
46730;DHT22;32476;50.002;11.854;2022-07-23T09:57:46;22.90;99.90
46730;DHT22;32476;50.002;11.854;2022-07-23T10:00:20;22.90;99.90
46730;DHT22;32476;50.002;11.854;2022-07-23T10:02:49;22.80;99.90
46730;DHT22;32476;50.002;11.854;2022-07-23T10:05:16;22.80;99.90
46730;DHT22;32476;50.002;11.854;2022-07-23T10:07:43;22.90;99.90
46730;DHT22;32476;50.002;11.854;2022-07-23T10:10:12;23.10;99.90
46730;DHT22;32476;50.002;11.854;2022-07-23T10:12:39;23.20;99.90
46730;DHT22;32476;50.002;11.854;2022-07-23T10:15:18;23.30;99.90
46730;DHT22;32476;50.002;11.854;2022-07-23T10:17:44;23.50;99.90
46730;DHT22;32476;50.002;11.854;2022-07-23T10:20:10;23.80;99.90
46730;DHT22;32476;50.002;11.854;2022-07-23T10:22:46;23.90;99.90
46730;DHT22;32476;50.002;11.854;2022-07-23T10:31:41;24.00;99.90
46730;DHT22;32476;50.002;11.854;2022-07-23T10:37:28;23.60;99.90
46730;DHT22;32476;50.002;11.854;2022-07-23T10:40:18;23.60;99.90
46730;DHT22;32476;50.002;11.854;2022-07-23T10:42:47;23.80;99.90
46730;DHT22;32476;50.002;11.854;2022-07-23T10:47:53;23.30;99.90
46730;DHT22;32476;50.002;11.854;2022-07-23T10:50:25;23.00;99.90
46730;DHT22;32476;50.002;11.854;2022-07-23T10:55:39;22.80;99.90
46730;DHT22;32476;50.002;11.854;2022-07-23T10:58:06;22.90;99.90
46730;DHT22;32476;50.002;11.854;2022-07-23T11:00:34;23.00;99.90
46730;DHT22;32476;50.002;11.854;2022-07-23T11:06:10;23.10;99.90
46730;DHT22;32476;50.002;11.854;2022-07-23T11:08:38;23.20;99.90
46730;DHT22;32476;50.002;11.854;2022-07-23T11:13:46;23.10;99.90
46730;DHT22;32476;50.002;11.854;2022-07-23T11:16:20;23.70;99.90
46730;DHT22;32476;50.002;11.854;2022-07-23T11:32:25;25.30;99.70
46730;DHT22;32476;50.002;11.854;2022-07-23T11:34:54;25.20;99.80
46730;DHT22;32476;50.002;11.854;2022-07-23T11:39:59;25.60;99.10
46730;DHT22;32476;50.002;11.854;2022-07-23T11:42:27;25.00;99.60
46730;DHT22;32476;50.002;11.854;2022-07-23T11:44:54;24.90;99.70
46730;DHT22;32476;50.002;11.854;2022-07-23T11:47:24;24.60;99.90
46730;DHT22;32476;50.002;11.854;2022-07-23T11:49:57;24.80;99.90
46730;DHT22;32476;50.002;11.854;2022-07-23T11:52:25;25.00;99.90
46730;DHT22;32476;50.002;11.854;2022-07-23T11:54:56;24.90;99.90
46730;DHT22;32476;50.002;11.854;2022-07-23T11:57:29;25.00;99.90
46730;DHT22;32476;50.002;11.854;2022-07-23T12:00:14;24.80;99.80
46730;DHT22;32476;50.002;11.854;2022-07-23T12:02:46;24.80;99.90
46730;DHT22;32476;50.002;11.854;2022-07-23T12:05:20;24.50;99.90
46730;DHT22;32476;50.002;11.854;2022-07-23T12:07:49;24.80;99.90
46730;DHT22;32476;50.002;11.854;2022-07-23T12:10:27;25.30;99.90
46730;DHT22;32476;50.002;11.854;2022-07-23T12:13:17;25.70;99.70
46730;DHT22;32476;50.002;11.854;2022-07-23T12:15:46;25.30;99.70
46730;DHT22;32476;50.002;11.854;2022-07-23T12:18:16;24.70;99.90
46730;DHT22;32476;50.002;11.854;2022-07-23T12:20:49;24.90;99.90
46730;DHT22;32476;50.002;11.854;2022-07-23T12:23:18;24.70;99.90
46730;DHT22;32476;50.002;11.854;2022-07-23T12:25:48;24.60;99.90
46730;DHT22;32476;50.002;11.854;2022-07-23T12:28:29;24.60;99.90
46730;DHT22;32476;50.002;11.854;2022-07-23T12:31:00;24.50;99.90
46730;DHT22;32476;50.002;11.854;2022-07-23T12:33:33;24.50;99.90
46730;DHT22;32476;50.002;11.854;2022-07-23T12:36:07;24.70;99.90
46730;DHT22;32476;50.002;11.854;2022-07-23T12:38:43;24.90;99.90
46730;DHT22;32476;50.002;11.854;2022-07-23T12:41:15;25.10;99.90
46730;DHT22;32476;50.002;11.854;2022-07-23T12:43:44;25.30;99.70
46730;DHT22;32476;50.002;11.854;2022-07-23T12:46:14;25.00;99.60
46730;DHT22;32476;50.002;11.854;2022-07-23T12:51:20;24.90;99.70
46730;DHT22;32476;50.002;11.854;2022-07-23T12:53:51;25.00;99.70
46730;DHT22;32476;50.002;11.854;2022-07-23T12:56:32;24.80;99.90
46730;DHT22;32476;50.002;11.854;2022-07-23T12:59:10;24.40;99.90
46730;DHT22;32476;50.002;11.854;2022-07-23T13:01:40;24.40;99.90
46730;DHT22;32476;50.002;11.854;2022-07-23T13:04:15;24.50;99.90
46730;DHT22;32476;50.002;11.854;2022-07-23T13:06:50;24.70;99.90
46730;DHT22;32476;50.002;11.854;2022-07-23T13:09:23;24.70;99.90
46730;DHT22;32476;50.002;11.854;2022-07-23T13:11:59;24.50;99.90
46730;DHT22;32476;50.002;11.854;2022-07-23T13:14:28;24.60;99.90
46730;DHT22;32476;50.002;11.854;2022-07-23T13:16:55;24.30;99.90
46730;DHT22;32476;50.002;11.854;2022-07-23T13:19:21;24.40;99.90
46730;DHT22;32476;50.002;11.854;2022-07-23T13:21:49;24.30;99.90
46730;DHT22;32476;50.002;11.854;2022-07-23T13:24:15;24.40;99.90
46730;DHT22;32476;50.002;11.854;2022-07-23T13:26:42;24.30;99.90
46730;DHT22;32476;50.002;11.854;2022-07-23T13:29:09;24.20;99.90
46730;DHT22;32476;50.002;11.854;2022-07-23T13:31:36;24.80;99.90
46730;DHT22;32476;50.002;11.854;2022-07-23T13:34:03;25.80;99.30
46730;DHT22;32476;50.002;11.854;2022-07-23T13:36:31;26.10;99.00
46730;DHT22;32476;50.002;11.854;2022-07-23T13:38:57;26.20;97.20
46730;DHT22;32476;50.002;11.854;2022-07-23T13:41:23;26.00;97.20
46730;DHT22;32476;50.002;11.854;2022-07-23T13:43:50;25.10;97.50
46730;DHT22;32476;50.002;11.854;2022-07-23T13:46:16;25.20;97.20
46730;DHT22;32476;50.002;11.854;2022-07-23T13:48:42;24.90;97.60
46730;DHT22;32476;50.002;11.854;2022-07-23T13:51:10;25.00;97.50
46730;DHT22;32476;50.002;11.854;2022-07-23T13:53:36;25.40;97.70
46730;DHT22;32476;50.002;11.854;2022-07-23T13:56:02;26.30;96.50
46730;DHT22;32476;50.002;11.854;2022-07-23T13:58:29;26.80;95.00
46730;DHT22;32476;50.002;11.854;2022-07-23T14:00:55;26.70;95.40
46730;DHT22;32476;50.002;11.854;2022-07-23T14:03:22;26.70;94.60
46730;DHT22;32476;50.002;11.854;2022-07-23T14:05:51;26.10;94.30
46730;DHT22;32476;50.002;11.854;2022-07-23T14:08:18;26.10;95.40
46730;DHT22;32476;50.002;11.854;2022-07-23T14:10:44;25.70;95.10
46730;DHT22;32476;50.002;11.854;2022-07-23T14:13:11;25.80;95.40
46730;DHT22;32476;50.002;11.854;2022-07-23T14:15:37;26.40;95.50
46730;DHT22;32476;50.002;11.854;2022-07-23T14:18:06;26.60;93.60
46730;DHT22;32476;50.002;11.854;2022-07-23T14:20:34;26.10;94.60
46730;DHT22;32476;50.002;11.854;2022-07-23T14:23:00;26.50;93.80
46730;DHT22;32476;50.002;11.854;2022-07-23T14:25:27;26.50;93.80
46730;DHT22;32476;50.002;11.854;2022-07-23T14:27:54;25.80;94.10
46730;DHT22;32476;50.002;11.854;2022-07-23T14:30:20;25.70;94.90
46730;DHT22;32476;50.002;11.854;2022-07-23T14:32:48;25.60;94.50
46730;DHT22;32476;50.002;11.854;2022-07-23T14:35:16;25.00;94.50
46730;DHT22;32476;50.002;11.854;2022-07-23T14:37:42;24.80;95.40
46730;DHT22;32476;50.002;11.854;2022-07-23T14:40:08;24.80;95.30
46730;DHT22;32476;50.002;11.854;2022-07-23T14:42:36;24.70;96.20
46730;DHT22;32476;50.002;11.854;2022-07-23T14:45:03;24.10;97.90
46730;DHT22;32476;50.002;11.854;2022-07-23T14:47:30;23.90;98.40
46730;DHT22;32476;50.002;11.854;2022-07-23T14:49:58;23.90;98.70
46730;DHT22;32476;50.002;11.854;2022-07-23T14:52:24;23.80;99.00
46730;DHT22;32476;50.002;11.854;2022-07-23T14:54:50;24.60;99.00
46730;DHT22;32476;50.002;11.854;2022-07-23T14:57:17;24.70;98.30
46730;DHT22;32476;50.002;11.854;2022-07-23T14:59:43;25.10;98.50
46730;DHT22;32476;50.002;11.854;2022-07-23T15:02:09;24.80;98.00
46730;DHT22;32476;50.002;11.854;2022-07-23T15:04:37;25.30;97.90
46730;DHT22;32476;50.002;11.854;2022-07-23T15:07:03;25.50;97.70
46730;DHT22;32476;50.002;11.854;2022-07-23T15:09:29;24.90;97.90
46730;DHT22;32476;50.002;11.854;2022-07-23T15:11:56;24.40;98.00
46730;DHT22;32476;50.002;11.854;2022-07-23T15:14:22;23.90;98.90
46730;DHT22;32476;50.002;11.854;2022-07-23T15:16:48;24.00;98.90
46730;DHT22;32476;50.002;11.854;2022-07-23T15:19:16;24.40;98.70
46730;DHT22;32476;50.002;11.854;2022-07-23T15:21:42;24.80;98.60
46730;DHT22;32476;50.002;11.854;2022-07-23T15:24:08;25.40;97.70
46730;DHT22;32476;50.002;11.854;2022-07-23T15:26:36;24.90;97.70
46730;DHT22;32476;50.002;11.854;2022-07-23T15:29:02;25.40;97.80
46730;DHT22;32476;50.002;11.854;2022-07-23T15:31:29;25.90;97.20
46730;DHT22;32476;50.002;11.854;2022-07-23T15:33:56;26.00;96.50
46730;DHT22;32476;50.002;11.854;2022-07-23T15:36:22;26.00;96.90
46730;DHT22;32476;50.002;11.854;2022-07-23T15:38:48;25.80;95.60
46730;DHT22;32476;50.002;11.854;2022-07-23T15:41:16;25.50;96.60
46730;DHT22;32476;50.002;11.854;2022-07-23T15:43:42;25.70;97.20
46730;DHT22;32476;50.002;11.854;2022-07-23T15:46:08;25.70;96.40
46730;DHT22;32476;50.002;11.854;2022-07-23T15:48:36;25.80;96.00
46730;DHT22;32476;50.002;11.854;2022-07-23T15:51:03;25.10;96.70
46730;DHT22;32476;50.002;11.854;2022-07-23T15:53:30;24.60;97.60
46730;DHT22;32476;50.002;11.854;2022-07-23T15:55:57;25.00;96.70
46730;DHT22;32476;50.002;11.854;2022-07-23T15:58:24;25.70;96.10
46730;DHT22;32476;50.002;11.854;2022-07-23T16:00:50;25.80;95.50
46730;DHT22;32476;50.002;11.854;2022-07-23T16:03:17;25.30;96.10
46730;DHT22;32476;50.002;11.854;2022-07-23T16:05:44;24.80;97.90
46730;DHT22;32476;50.002;11.854;2022-07-23T16:08:10;25.00;98.50
46730;DHT22;32476;50.002;11.854;2022-07-23T16:10:37;24.70;99.00
46730;DHT22;32476;50.002;11.854;2022-07-23T16:13:03;25.00;99.20
46730;DHT22;32476;50.002;11.854;2022-07-23T16:15:29;24.30;99.50